createdAt,value
2022-12-03T00:00:12.150Z,84.03
2022-12-03T00:02:41.187Z,84.38
2022-12-03T00:05:10.073Z,84.33
2022-12-03T00:07:37.672Z,84.10
2022-12-03T00:10:06.249Z,83.75
2022-12-03T00:12:33.990Z,83.84
2022-12-03T00:15:01.469Z,83.98
2022-12-03T00:17:29.044Z,84.08
2022-12-03T00:19:56.614Z,84.16
2022-12-03T00:22:24.347Z,85.48
2022-12-03T00:24:52.194Z,84.20
2022-12-03T00:27:19.774Z,83.79
2022-12-03T00:29:47.428Z,83.74
2022-12-03T00:32:14.946Z,83.87
2022-12-03T00:34:42.471Z,83.84
2022-12-03T00:37:10.423Z,83.87
2022-12-03T00:39:37.952Z,83.88
2022-12-03T00:42:05.700Z,83.89
2022-12-03T00:44:33.192Z,83.43
2022-12-03T00:47:00.784Z,84.17
2022-12-03T00:49:28.359Z,84.08
2022-12-03T00:51:55.758Z,84.92
2022-12-03T00:54:26.998Z,84.22
2022-12-03T00:56:59.079Z,84.26
2022-12-03T00:59:26.816Z,84.77
2022-12-03T01:01:54.384Z,84.81
2022-12-03T01:04:22.037Z,84.81
2022-12-03T01:06:50.347Z,84.69
2022-12-03T01:09:17.913Z,84.48
2022-12-03T01:11:45.403Z,84.15
2022-12-03T01:14:16.828Z,84.22
2022-12-03T01:16:44.750Z,83.92
2022-12-03T01:19:16.653Z,84.25
2022-12-03T01:21:48.236Z,84.08
2022-12-03T01:24:15.977Z,84.19
2022-12-03T01:26:43.701Z,84.67
2022-12-03T01:29:11.191Z,84.26
2022-12-03T01:31:57.398Z,84.36
2022-12-03T01:34:24.882Z,84.66
2022-12-03T01:36:52.611Z,84.76
2022-12-03T01:39:20.485Z,83.84
2022-12-03T01:41:50.319Z,85.83
2022-12-03T01:44:28.178Z,86.43
2022-12-03T01:46:59.374Z,86.15
2022-12-03T01:49:31.459Z,86.54
2022-12-03T01:51:59.523Z,86.60
2022-12-03T01:54:38.218Z,85.68
2022-12-03T01:57:17.229Z,84.49
2022-12-03T01:59:45.572Z,85.18
2022-12-03T02:02:22.107Z,85.41
2022-12-03T02:04:50.054Z,85.17
2022-12-03T02:07:29.538Z,85.29
2022-12-03T02:09:59.505Z,86.57
2022-12-03T02:12:46.698Z,87.06
2022-12-03T02:15:14.512Z,86.81
2022-12-03T02:17:43.010Z,86.34
2022-12-03T02:20:12.490Z,86.64
2022-12-03T02:22:44.867Z,86.37
2022-12-03T02:25:22.329Z,87.05
2022-12-03T02:27:50.570Z,87.43
2022-12-03T02:30:21.070Z,87.39
2022-12-03T02:32:49.555Z,87.44
2022-12-03T02:35:23.359Z,87.67
2022-12-03T02:37:54.853Z,87.85
2022-12-03T02:40:27.384Z,87.84
2022-12-03T02:42:57.804Z,87.75
2022-12-03T02:45:36.177Z,87.38
2022-12-03T02:48:16.286Z,87.10
2022-12-03T02:50:49.006Z,87.28
2022-12-03T02:53:23.869Z,87.38
2022-12-03T02:55:52.590Z,86.65
2022-12-03T02:58:22.112Z,87.09
2022-12-03T03:00:51.773Z,86.98
2022-12-03T03:03:21.027Z,87.36
2022-12-03T03:05:49.609Z,87.77
2022-12-03T03:08:18.683Z,87.41
2022-12-03T03:10:47.640Z,88.47
2022-12-03T03:13:19.089Z,87.99
2022-12-03T03:15:46.683Z,88.34
2022-12-03T03:18:15.669Z,87.40
2022-12-03T03:20:43.988Z,87.94
2022-12-03T03:23:12.745Z,87.53
2022-12-03T03:25:43.664Z,87.70
2022-12-03T03:28:14.307Z,88.62
2022-12-03T03:30:43.870Z,88.86
2022-12-03T03:33:13.158Z,89.14
2022-12-03T03:35:41.182Z,87.79
2022-12-03T03:38:09.733Z,87.67
2022-12-03T03:40:38.425Z,87.44
2022-12-03T03:43:06.623Z,87.24
2022-12-03T03:45:34.163Z,87.79
2022-12-03T03:48:02.194Z,87.88
2022-12-03T03:50:31.630Z,87.76
2022-12-03T03:53:02.635Z,87.33
2022-12-03T03:55:31.500Z,87.13
2022-12-03T03:57:59.207Z,87.17
2022-12-03T04:00:27.282Z,87.76
2022-12-03T04:02:54.780Z,88.60
2022-12-03T04:05:24.151Z,87.26
2022-12-03T04:07:52.155Z,87.26
2022-12-03T04:10:38.271Z,87.36
2022-12-03T04:13:06.149Z,87.54
2022-12-03T04:15:33.777Z,87.25
2022-12-03T04:18:19.797Z,87.25
2022-12-03T04:20:47.263Z,86.78
2022-12-03T04:23:14.816Z,86.47
2022-12-03T04:26:11.787Z,87.12
2022-12-03T04:28:51.083Z,87.48
2022-12-03T04:31:44.707Z,87.31
2022-12-03T04:34:30.638Z,87.61
2022-12-03T04:36:58.187Z,86.69
2022-12-03T04:39:25.693Z,87.12
2022-12-03T04:41:53.162Z,86.65
2022-12-03T04:44:38.704Z,86.69
2022-12-03T04:47:18.045Z,86.69
2022-12-03T04:49:49.727Z,86.89
2022-12-03T04:52:19.051Z,86.49
2022-12-03T04:54:46.750Z,85.75
2022-12-03T04:57:14.337Z,86.21
2022-12-03T04:59:42.222Z,86.04
2022-12-03T05:02:09.927Z,86.04
2022-12-03T05:04:37.878Z,86.41
2022-12-03T05:07:05.347Z,86.18
2022-12-03T05:09:33.463Z,86.05
2022-12-03T05:12:01.095Z,86.17
2022-12-03T05:14:28.514Z,86.75
2022-12-03T05:16:56.123Z,86.46
2022-12-03T05:19:43.824Z,85.81
2022-12-03T05:22:11.301Z,85.91
2022-12-03T05:24:38.765Z,85.97
2022-12-03T05:27:06.264Z,86.24
2022-12-03T05:29:33.981Z,85.99
2022-12-03T05:32:01.474Z,86.17
2022-12-03T05:34:29.019Z,85.72
2022-12-03T05:36:56.558Z,86.01
2022-12-03T05:39:26.521Z,85.84
2022-12-03T05:42:12.651Z,86.34
2022-12-03T05:44:40.144Z,86.28
2022-12-03T05:47:07.883Z,85.78
2022-12-03T05:49:35.575Z,86.09
2022-12-03T05:52:03.212Z,86.19
2022-12-03T05:54:30.660Z,86.79
2022-12-03T05:56:58.192Z,85.83
2022-12-03T05:59:25.899Z,85.72
2022-12-03T06:01:53.412Z,85.37
2022-12-03T06:04:20.841Z,85.54
2022-12-03T06:06:48.357Z,85.64
2022-12-03T06:09:17.452Z,85.35
2022-12-03T06:11:44.970Z,85.15
2022-12-03T06:14:13.377Z,85.35
2022-12-03T06:16:40.991Z,85.25
2022-12-03T06:19:08.578Z,85.43
2022-12-03T06:21:36.159Z,85.21
2022-12-03T06:24:03.929Z,85.73
2022-12-03T06:26:31.399Z,85.53
2022-12-03T06:28:58.962Z,84.93
2022-12-03T06:31:26.588Z,84.79
2022-12-03T06:33:54.184Z,84.81
2022-12-03T06:36:23.412Z,84.73
2022-12-03T06:38:51.159Z,84.84
2022-12-03T06:41:18.739Z,85.01
2022-12-03T06:43:46.280Z,85.46
2022-12-03T06:46:13.853Z,85.44
2022-12-03T06:48:41.521Z,84.64
2022-12-03T06:51:09.102Z,84.43
2022-12-03T06:53:36.654Z,84.75
2022-12-03T06:56:04.286Z,84.53
2022-12-03T06:58:31.731Z,84.48
2022-12-03T07:00:59.508Z,84.00
2022-12-03T07:03:27.434Z,83.67
2022-12-03T07:05:55.673Z,83.76
2022-12-03T07:08:23.113Z,84.11
2022-12-03T07:10:50.697Z,83.68
2022-12-03T07:13:18.213Z,83.80
2022-12-03T07:15:47.501Z,83.24
2022-12-03T07:18:15.319Z,83.54
2022-12-03T07:20:43.564Z,83.23
2022-12-03T07:23:11.228Z,83.33
2022-12-03T07:25:38.861Z,82.91
2022-12-03T07:28:06.306Z,82.65
2022-12-03T07:30:33.910Z,82.78
2022-12-03T07:33:01.554Z,83.50
2022-12-03T07:35:29.039Z,83.18
2022-12-03T07:37:57.182Z,82.46
2022-12-03T07:40:24.674Z,82.86
2022-12-03T07:42:52.212Z,82.40
2022-12-03T07:45:20.116Z,82.60
2022-12-03T07:47:48.112Z,82.78
2022-12-03T07:50:15.689Z,82.52
2022-12-03T07:52:43.309Z,82.67
2022-12-03T07:55:12.725Z,82.66
2022-12-03T07:57:40.268Z,82.35
2022-12-03T08:00:10.776Z,82.73
2022-12-03T08:02:38.338Z,82.06
2022-12-03T08:05:06.290Z,81.80
2022-12-03T08:07:34.110Z,81.68
2022-12-03T08:10:01.747Z,81.24
2022-12-03T08:12:40.231Z,81.25
2022-12-03T08:15:20.230Z,81.50
2022-12-03T08:17:55.284Z,79.79
2022-12-03T08:20:28.876Z,80.51
2022-12-03T08:22:57.395Z,79.10
2022-12-03T08:25:32.759Z,78.99
2022-12-03T08:28:08.031Z,79.11
2022-12-03T08:30:35.541Z,79.21
2022-12-03T08:33:13.583Z,79.11
2022-12-03T08:35:44.466Z,77.76
2022-12-03T08:38:13.147Z,76.67
2022-12-03T08:40:43.463Z,66.96
2022-12-03T08:43:18.588Z,52.33
2022-12-03T08:45:46.839Z,54.58
2022-12-03T08:48:36.801Z,66.95
2022-12-03T08:51:25.470Z,72.82
2022-12-03T08:54:04.198Z,74.75
2022-12-03T08:56:36.045Z,76.90
2022-12-03T08:59:29.432Z,75.87
2022-12-03T09:01:58.768Z,73.44
2022-12-03T09:04:36.603Z,72.62
2022-12-03T09:07:04.988Z,72.20
2022-12-03T09:09:33.746Z,71.85
2022-12-03T09:12:03.313Z,69.49
2022-12-03T09:14:30.757Z,71.28
2022-12-03T09:16:58.233Z,72.74
2022-12-03T09:19:27.743Z,73.58
2022-12-03T09:21:55.228Z,72.02
2022-12-03T09:24:23.504Z,71.35
2022-12-03T09:26:51.113Z,72.67
2022-12-03T09:29:18.649Z,73.65
2022-12-03T09:31:46.267Z,73.32
2022-12-03T09:34:13.845Z,73.74
2022-12-03T09:36:41.427Z,72.60
2022-12-03T09:39:09.211Z,75.09
2022-12-03T09:41:36.879Z,75.32
2022-12-03T09:44:05.732Z,74.95
2022-12-03T09:46:36.138Z,77.29
2022-12-03T09:49:12.288Z,76.69
2022-12-03T09:51:41.689Z,76.34
2022-12-03T09:54:24.130Z,75.33
2022-12-03T09:56:52.905Z,74.65
2022-12-03T09:59:21.681Z,71.62
2022-12-03T10:01:49.631Z,71.09
2022-12-03T10:04:17.727Z,70.23
2022-12-03T10:06:46.259Z,69.41
2022-12-03T10:09:17.662Z,69.53
2022-12-03T10:11:45.546Z,67.58
2022-12-03T10:14:14.894Z,68.01
2022-12-03T10:16:42.883Z,69.00
2022-12-03T10:19:21.246Z,69.91
2022-12-03T10:21:48.954Z,71.13
2022-12-03T10:24:25.799Z,69.75
2022-12-03T10:27:14.357Z,68.03
2022-12-03T10:29:53.212Z,68.38
2022-12-03T10:32:26.767Z,69.27
2022-12-03T10:35:11.720Z,69.13
2022-12-03T10:37:59.395Z,69.75
2022-12-03T10:40:34.563Z,70.75
2022-12-03T10:43:24.712Z,69.13
2022-12-03T10:46:04.046Z,67.44
2022-12-03T10:48:32.248Z,68.42
2022-12-03T10:51:04.884Z,63.94
2022-12-03T10:53:35.600Z,61.79
2022-12-03T10:56:06.454Z,57.51
2022-12-03T10:58:39.222Z,60.09
2022-12-03T11:01:15.872Z,61.42
2022-12-03T11:03:44.352Z,65.20
2022-12-03T11:06:18.038Z,64.29
2022-12-03T11:08:53.032Z,65.54
2022-12-03T11:11:26.651Z,64.51
2022-12-03T11:13:57.563Z,62.33
2022-12-03T11:16:45.266Z,57.55
2022-12-03T11:19:12.705Z,55.88
2022-12-03T11:22:04.958Z,57.38
2022-12-03T11:24:34.841Z,55.77
2022-12-03T11:27:02.351Z,52.13
2022-12-03T11:29:54.656Z,51.95
2022-12-03T11:32:48.102Z,51.85
2022-12-03T11:35:25.068Z,54.94
2022-12-03T11:37:52.815Z,50.71
2022-12-03T11:40:20.463Z,48.64
2022-12-03T11:42:48.924Z,46.61
2022-12-03T11:45:39.737Z,47.30
2022-12-03T11:48:13.459Z,49.56
2022-12-03T11:50:52.574Z,51.71
2022-12-03T11:53:23.747Z,50.47
2022-12-03T11:56:06.318Z,48.92
2022-12-03T11:58:36.161Z,46.49
2022-12-03T12:01:06.477Z,44.41
2022-12-03T12:03:37.958Z,43.44
2022-12-03T12:06:12.894Z,44.61
2022-12-03T12:09:00.183Z,44.19
2022-12-03T12:11:30.584Z,48.15
2022-12-03T12:14:02.626Z,48.31
2022-12-03T12:16:50.755Z,49.43
2022-12-03T12:19:38.213Z,50.42
2022-12-03T12:22:14.522Z,57.10
2022-12-03T12:24:47.044Z,57.21
2022-12-03T12:27:39.354Z,58.66
2022-12-03T12:30:14.265Z,60.41
2022-12-03T12:32:49.201Z,59.32
2022-12-03T12:35:21.188Z,60.55
2022-12-03T12:37:59.766Z,61.47
2022-12-03T12:40:34.031Z,64.03
2022-12-03T12:43:11.562Z,65.38
2022-12-03T12:45:42.968Z,66.45
2022-12-03T12:48:10.356Z,67.52
2022-12-03T12:50:38.581Z,67.52
2022-12-03T12:53:27.278Z,68.43
2022-12-03T12:56:00.470Z,68.08
2022-12-03T12:58:31.842Z,68.46
2022-12-03T13:01:04.352Z,68.92
2022-12-03T13:03:38.265Z,69.27
2022-12-03T13:06:06.190Z,68.21
2022-12-03T13:08:47.911Z,69.41
2022-12-03T13:11:24.538Z,69.34
2022-12-03T13:13:52.393Z,69.60
2022-12-03T13:16:28.222Z,69.58
2022-12-03T13:19:00.319Z,69.38
2022-12-03T13:21:42.967Z,69.98
2022-12-03T13:24:26.548Z,69.56
2022-12-03T13:26:55.413Z,69.58
2022-12-03T13:29:23.797Z,70.14
2022-12-03T13:32:09.903Z,69.60
2022-12-03T13:34:37.436Z,70.26
2022-12-03T13:37:14.082Z,70.36
2022-12-03T13:39:47.842Z,70.22
2022-12-03T13:42:38.651Z,70.46
2022-12-03T13:45:35.802Z,70.52
2022-12-03T13:48:18.743Z,70.87
2022-12-03T13:50:46.394Z,71.38
2022-12-03T13:53:34.072Z,71.36
2022-12-03T13:56:04.488Z,71.15
2022-12-03T13:58:31.963Z,71.72
2022-12-03T14:00:59.714Z,71.29
2022-12-03T14:03:27.279Z,71.00
2022-12-03T14:05:54.761Z,71.29
2022-12-03T14:08:22.325Z,71.84
2022-12-03T14:10:52.120Z,72.36
2022-12-03T14:13:21.698Z,71.23
2022-12-03T14:15:49.215Z,71.65
2022-12-03T14:18:17.027Z,70.27
2022-12-03T14:20:44.504Z,70.65
2022-12-03T14:23:12.097Z,69.81
2022-12-03T14:25:39.600Z,69.68
2022-12-03T14:28:09.878Z,69.94
2022-12-03T14:30:37.593Z,69.85
2022-12-03T14:33:05.046Z,70.29
2022-12-03T14:35:32.564Z,69.75
2022-12-03T14:38:21.120Z,71.04
2022-12-03T14:40:48.646Z,70.84
2022-12-03T14:43:16.239Z,71.24
2022-12-03T14:45:43.839Z,70.47
2022-12-03T14:48:11.484Z,70.79
2022-12-03T14:50:38.942Z,71.02
2022-12-03T14:53:06.568Z,71.61
2022-12-03T14:55:34.075Z,71.37
2022-12-03T14:58:01.810Z,71.24
2022-12-03T15:00:29.357Z,71.92
2022-12-03T15:02:56.943Z,71.64
2022-12-03T15:05:28.541Z,71.95
2022-12-03T15:07:56.636Z,72.52
2022-12-03T15:10:24.227Z,71.95
2022-12-03T15:12:51.682Z,71.96
2022-12-03T15:15:19.711Z,71.76
2022-12-03T15:17:47.327Z,71.84
2022-12-03T15:20:14.926Z,72.52
2022-12-03T15:22:43.368Z,72.75
2022-12-03T15:25:11.124Z,72.72
2022-12-03T15:27:38.594Z,73.40
2022-12-03T15:30:06.958Z,72.94
2022-12-03T15:32:34.441Z,73.03
2022-12-03T15:35:02.089Z,73.62
2022-12-03T15:37:29.737Z,73.61
2022-12-03T15:39:57.463Z,73.88
2022-12-03T15:42:25.100Z,73.84
2022-12-03T15:44:52.594Z,73.88
2022-12-03T15:47:20.055Z,74.33
2022-12-03T15:49:48.863Z,74.38
2022-12-03T15:52:16.670Z,75.29
2022-12-03T15:54:44.362Z,74.46
2022-12-03T15:57:12.054Z,74.61
2022-12-03T15:59:39.557Z,74.58
2022-12-03T16:02:07.152Z,74.61
2022-12-03T16:04:35.992Z,74.63
2022-12-03T16:07:03.801Z,75.21
2022-12-03T16:09:33.630Z,75.36
2022-12-03T16:12:01.594Z,75.09
2022-12-03T16:14:29.080Z,75.71
2022-12-03T16:16:58.862Z,75.14
2022-12-03T16:19:26.509Z,75.00
2022-12-03T16:21:54.069Z,74.34
2022-12-03T16:24:23.634Z,74.20
2022-12-03T16:26:52.049Z,74.43
2022-12-03T16:29:19.707Z,73.88
2022-12-03T16:31:47.610Z,74.10
2022-12-03T16:34:15.495Z,74.75
2022-12-03T16:36:46.094Z,74.70
2022-12-03T16:39:14.043Z,74.82
2022-12-03T16:41:41.510Z,74.78
2022-12-03T16:44:19.751Z,74.28
2022-12-03T16:46:48.209Z,74.00
2022-12-03T16:49:16.170Z,74.57
2022-12-03T16:51:43.907Z,74.66
2022-12-03T16:54:11.765Z,74.22
2022-12-03T16:56:39.213Z,74.51
2022-12-03T16:59:06.755Z,74.74
2022-12-03T17:01:34.272Z,74.77
2022-12-03T17:04:01.833Z,74.84
2022-12-03T17:06:29.362Z,75.08
2022-12-03T17:08:56.825Z,74.31
2022-12-03T17:11:24.406Z,74.33
2022-12-03T17:13:51.878Z,73.82
2022-12-03T17:16:19.400Z,74.77
2022-12-03T17:18:48.194Z,76.50
2022-12-03T17:21:15.791Z,77.87
2022-12-03T17:23:44.755Z,78.66
2022-12-03T17:26:14.903Z,78.06
2022-12-03T17:28:42.420Z,78.85
2022-12-03T17:31:10.250Z,78.35
2022-12-03T17:33:38.300Z,78.98
2022-12-03T17:36:07.845Z,75.87
2022-12-03T17:38:39.325Z,75.12
2022-12-03T17:41:07.525Z,76.43
2022-12-03T17:43:34.985Z,75.96
2022-12-03T17:46:02.814Z,76.82
2022-12-03T17:48:31.409Z,79.75
2022-12-03T17:50:59.483Z,79.39
2022-12-03T17:53:27.665Z,80.46
2022-12-03T17:55:55.155Z,80.21
2022-12-03T17:58:23.832Z,80.54
2022-12-03T18:00:51.424Z,80.55
2022-12-03T18:03:18.889Z,80.90
2022-12-03T18:05:46.625Z,81.20
2022-12-03T18:08:15.069Z,81.94
2022-12-03T18:10:43.287Z,81.09
2022-12-03T18:13:11.073Z,81.14
2022-12-03T18:15:38.571Z,81.98
2022-12-03T18:18:06.158Z,82.06
2022-12-03T18:20:33.839Z,82.27
2022-12-03T18:23:01.846Z,81.82
2022-12-03T18:25:30.038Z,82.66
2022-12-03T18:27:57.629Z,82.41
2022-12-03T18:30:25.748Z,82.19
2022-12-03T18:32:53.399Z,82.24
2022-12-03T18:35:21.119Z,82.49
2022-12-03T18:37:50.230Z,82.47
2022-12-03T18:40:22.548Z,82.38
2022-12-03T18:42:50.778Z,82.74
2022-12-03T18:45:19.890Z,82.85
2022-12-03T18:47:50.657Z,82.74
2022-12-03T18:50:18.408Z,82.81
2022-12-03T18:52:48.053Z,83.19
2022-12-03T18:55:19.971Z,83.07
2022-12-03T18:57:47.592Z,83.05
2022-12-03T19:00:17.828Z,83.01
2022-12-03T19:03:02.516Z,82.11
2022-12-03T19:05:32.783Z,83.72
2022-12-03T19:08:01.975Z,84.06
2022-12-03T19:10:29.641Z,84.17
2022-12-03T19:12:57.549Z,83.50
2022-12-03T19:15:25.259Z,83.28
2022-12-03T19:17:53.523Z,83.65
2022-12-03T19:20:26.267Z,83.83
2022-12-03T19:22:53.957Z,83.49
2022-12-03T19:25:21.830Z,83.23
2022-12-03T19:27:50.797Z,83.59
2022-12-03T19:30:18.597Z,83.60
2022-12-03T19:32:46.503Z,83.71
2022-12-03T19:35:16.186Z,83.62
2022-12-03T19:37:46.352Z,83.28
2022-12-03T19:40:15.079Z,84.87
2022-12-03T19:42:43.262Z,84.20
2022-12-03T19:45:11.313Z,84.00
2022-12-03T19:47:41.965Z,84.56
2022-12-03T19:50:10.455Z,85.10
2022-12-03T19:52:38.272Z,84.87
2022-12-03T19:55:06.548Z,84.87
2022-12-03T19:57:34.425Z,84.75
2022-12-03T20:00:02.296Z,85.15
2022-12-03T20:02:40.709Z,84.59
2022-12-03T20:05:08.723Z,84.46
2022-12-03T20:07:36.507Z,84.17
2022-12-03T20:10:05.114Z,84.93
2022-12-03T20:12:33.053Z,84.46
2022-12-03T20:15:01.047Z,84.04
2022-12-03T20:17:28.763Z,82.76
2022-12-03T20:19:56.869Z,83.11
2022-12-03T20:22:24.882Z,82.64
2022-12-03T20:24:52.608Z,82.81
2022-12-03T20:27:22.952Z,82.49
2022-12-03T20:29:51.151Z,82.27
2022-12-03T20:32:19.294Z,79.98
2022-12-03T20:34:49.615Z,81.78
2022-12-03T20:37:17.861Z,78.73
2022-12-03T20:39:45.765Z,79.17
2022-12-03T20:42:16.119Z,78.67
2022-12-03T20:44:43.753Z,78.80
2022-12-03T20:47:11.469Z,78.80
2022-12-03T20:49:40.207Z,78.81
2022-12-03T20:52:07.646Z,79.14
2022-12-03T20:54:35.363Z,78.52
2022-12-03T20:57:04.017Z,78.64
2022-12-03T20:59:32.931Z,78.87
2022-12-03T21:02:00.831Z,78.39
2022-12-03T21:04:28.515Z,79.10
2022-12-03T21:06:56.182Z,78.87
2022-12-03T21:09:23.958Z,79.17
2022-12-03T21:11:51.709Z,78.55
2022-12-03T21:14:19.321Z,78.67
2022-12-03T21:19:37.804Z,78.39
2022-12-03T21:22:05.778Z,78.92
2022-12-03T21:24:34.396Z,78.98
2022-12-03T21:27:02.055Z,78.29
2022-12-03T21:29:29.737Z,79.19
2022-12-03T21:31:57.567Z,78.40
2022-12-03T21:34:25.446Z,78.90
2022-12-03T21:36:52.894Z,78.48
2022-12-03T21:39:20.661Z,79.17
2022-12-03T21:42:34.023Z,79.26
2022-12-03T21:44:36.106Z,79.46
2022-12-03T21:47:10.721Z,82.66
2022-12-03T21:49:41.709Z,83.25
2022-12-03T21:52:09.777Z,83.31
2022-12-03T21:54:37.569Z,83.35
2022-12-03T21:57:05.266Z,83.19
2022-12-03T21:59:32.800Z,83.33
2022-12-03T22:02:00.432Z,83.04
2022-12-03T22:04:30.005Z,82.99
2022-12-03T22:06:57.492Z,79.86
2022-12-03T22:09:26.926Z,80.41
2022-12-03T22:11:56.920Z,82.55
2022-12-03T22:14:24.853Z,83.33
2022-12-03T22:16:52.446Z,83.27
2022-12-03T22:19:23.451Z,83.76
2022-12-03T22:21:51.308Z,84.14
2022-12-03T22:24:19.522Z,83.85
2022-12-03T22:26:47.592Z,83.32
2022-12-03T22:29:15.441Z,83.58
2022-12-03T22:31:43.003Z,83.26
2022-12-03T22:34:10.504Z,83.78
2022-12-03T22:36:38.045Z,84.41
2022-12-03T22:39:05.533Z,84.44
2022-12-03T22:41:33.494Z,84.30
2022-12-03T22:44:01.000Z,84.21
2022-12-03T22:46:28.492Z,84.32
2022-12-03T22:48:55.995Z,84.28
2022-12-03T22:51:25.753Z,84.07
2022-12-03T22:53:57.796Z,84.05
2022-12-03T22:56:26.466Z,84.15
2022-12-03T22:58:54.917Z,83.36
2022-12-03T23:01:28.953Z,83.63
2022-12-03T23:03:57.165Z,83.04
2022-12-03T23:06:24.752Z,83.37
2022-12-03T23:08:52.607Z,82.99
2022-12-03T23:11:20.813Z,83.44
2022-12-03T23:13:48.521Z,83.02
2022-12-03T23:16:19.649Z,83.44
2022-12-03T23:18:47.225Z,83.52
2022-12-03T23:21:24.028Z,83.48
2022-12-03T23:23:56.357Z,84.06
2022-12-03T23:26:23.962Z,83.78
2022-12-03T23:28:51.606Z,84.18
2022-12-03T23:31:23.202Z,84.07
2022-12-03T23:33:52.219Z,84.49
2022-12-03T23:36:21.227Z,83.55
2022-12-03T23:38:48.840Z,83.73
2022-12-03T23:41:20.088Z,83.19
2022-12-03T23:43:47.797Z,83.16
2022-12-03T23:46:19.831Z,82.91
2022-12-03T23:48:47.610Z,83.12
2022-12-03T23:51:18.365Z,82.71
2022-12-03T23:53:46.448Z,82.97
2022-12-03T23:56:17.657Z,82.95
2022-12-03T23:58:45.916Z,83.34
